Time;durP1;ratioP1;P1;durP2;ratioP2;P2;SDS_P1;SDS_P2;PMS_P1;PMS_P2;Temp;Humidity;BMP_temperature;BMP_pressure;BME280_temperature;BME280_humidity;BME280_pressure;Samples;Min_cycle;Max_cycle;Signal;HPM_P1;HPM_P2
2021/12/26 00:01:26;;;;;;;1.08;0.98;;;;;;;;;;5076385;28;20048;-21
2021/12/26 00:03:52;;;;;;;1.20;1.10;;;;;;;;;;5076529;28;20043;-21
2021/12/26 00:06:21;;;;;;;1.33;1.13;;;;;;;;;;5076196;28;20055;-21
2021/12/26 00:08:48;;;;;;;1.05;0.85;;;;;;;;;;5076210;28;20024;-21
2021/12/26 00:11:14;;;;;;;0.90;0.90;;;;;;;;;;5075222;28;20029;-22
2021/12/26 00:13:41;;;;;;;1.20;1.00;;;;;;;;;;5076033;28;20020;-21
2021/12/26 00:16:08;;;;;;;1.40;1.30;;;;;;;;;;5076595;28;20024;-22
2021/12/26 00:18:35;;;;;;;1.30;1.20;;;;;;;;;;5075799;28;20028;-22
2021/12/26 00:21:01;;;;;;;0.98;0.98;;;;;;;;;;5075926;28;20107;-21
2021/12/26 00:23:28;;;;;;;1.15;1.05;;;;;;;;;;5075810;28;20460;-21
2021/12/26 00:25:54;;;;;;;1.33;1.13;;;;;;;;;;5075637;28;20051;-22
2021/12/26 00:28:21;;;;;;;1.15;1.05;;;;;;;;;;5076329;28;20025;-22
2021/12/26 00:30:47;;;;;;;1.23;1.10;;;;;;;;;;5075982;28;20032;-22
2021/12/26 00:33:13;;;;;;;0.73;0.73;;;;;;;;;;5075627;28;20035;-22
2021/12/26 00:35:39;;;;;;;0.95;0.95;;;;;;;;;;5075645;28;20490;-21
2021/12/26 00:38:06;;;;;;;1.42;1.10;;;;;;;;;;5075593;28;20016;-23
2021/12/26 00:40:32;;;;;;;1.15;0.93;;;;;;;;;;5075563;28;20028;-22
2021/12/26 00:42:59;;;;;;;1.00;1.00;;;;;;;;;;5075695;28;20028;-21
2021/12/26 00:45:26;;;;;;;1.92;1.10;;;;;;;;;;5075498;28;20032;-22
2021/12/26 00:47:52;;;;;;;0.98;0.98;;;;;;;;;;5075348;28;20107;-22
2021/12/26 00:50:22;;;;;;;1.00;1.00;;;;;;;;;;5075895;28;20025;-21
2021/12/26 00:52:49;;;;;;;0.90;0.90;;;;;;;;;;5075248;28;20032;-21
2021/12/26 00:55:16;;;;;;;1.90;1.05;;;;;;;;;;5074320;28;20333;-21
2021/12/26 00:57:42;;;;;;;0.80;0.80;;;;;;;;;;5075816;28;20048;-21
2021/12/26 01:00:10;;;;;;;1.00;1.00;;;;;;;;;;5075458;28;20440;-22
2021/12/26 01:02:37;;;;;;;0.90;0.90;;;;;;;;;;5075580;28;20332;-22
2021/12/26 01:05:04;;;;;;;1.15;1.15;;;;;;;;;;5075136;28;20036;-22
2021/12/26 01:07:43;;;;;;;0.98;0.98;;;;;;;;;;5075011;28;20115;-21
2021/12/26 01:10:09;;;;;;;1.02;0.93;;;;;;;;;;5075379;28;20370;-22
2021/12/26 01:12:37;;;;;;;0.93;0.93;;;;;;;;;;5074987;28;20043;-24
2021/12/26 01:15:07;;;;;;;1.92;1.30;;;;;;;;;;5074996;28;20032;-21
2021/12/26 01:17:34;;;;;;;1.40;1.30;;;;;;;;;;5075575;28;20028;-21
2021/12/26 01:20:03;;;;;;;1.10;1.10;;;;;;;;;;5075247;28;20115;-21
2021/12/26 01:22:29;;;;;;;1.00;0.90;;;;;;;;;;5075083;28;20027;-22
2021/12/26 01:24:56;;;;;;;1.52;1.23;;;;;;;;;;5075059;28;20144;-21
2021/12/26 01:27:26;;;;;;;0.90;0.90;;;;;;;;;;5075104;28;20039;-23
2021/12/26 01:29:53;;;;;;;1.25;1.15;;;;;;;;;;5074615;28;20032;-22
2021/12/26 01:32:20;;;;;;;0.82;0.80;;;;;;;;;;5074988;28;20086;-21
2021/12/26 01:34:47;;;;;;;1.30;1.15;;;;;;;;;;5075062;28;20410;-22
2021/12/26 01:37:13;;;;;;;1.10;1.00;;;;;;;;;;5074745;28;20021;-21
2021/12/26 01:39:40;;;;;;;2.28;1.10;;;;;;;;;;5074970;28;20040;-21
2021/12/26 01:42:09;;;;;;;1.38;1.27;;;;;;;;;;5074592;28;20102;-21
2021/12/26 01:44:35;;;;;;;0.93;0.90;;;;;;;;;;5074922;28;20075;-23
2021/12/26 01:47:02;;;;;;;1.00;1.00;;;;;;;;;;5074574;28;20522;-22
2021/12/26 01:49:29;;;;;;;1.55;1.13;;;;;;;;;;5074621;28;20501;-21
2021/12/26 01:51:57;;;;;;;1.13;1.02;;;;;;;;;;5074818;28;20017;-22
2021/12/26 01:54:31;;;;;;;0.85;0.85;;;;;;;;;;5074592;28;20067;-22
2021/12/26 01:56:59;;;;;;;1.05;0.98;;;;;;;;;;5074855;28;20028;-21
2021/12/26 01:59:25;;;;;;;1.40;1.10;;;;;;;;;;5074816;28;20036;-22
2021/12/26 02:01:51;;;;;;;1.67;1.35;;;;;;;;;;5074398;28;20108;-22
2021/12/26 02:04:18;;;;;;;0.95;0.95;;;;;;;;;;5074797;28;20036;-21
2021/12/26 02:06:44;;;;;;;1.45;1.25;;;;;;;;;;5074686;28;20085;-21
2021/12/26 02:09:12;;;;;;;2.05;1.00;;;;;;;;;;5074443;28;20077;-21
2021/12/26 02:11:39;;;;;;;1.00;1.00;;;;;;;;;;5074322;28;20025;-22
2021/12/26 02:14:05;;;;;;;1.10;0.93;;;;;;;;;;5074302;28;20447;-21
2021/12/26 02:16:31;;;;;;;0.98;0.98;;;;;;;;;;5074350;28;20470;-22
2021/12/26 02:18:57;;;;;;;1.40;1.30;;;;;;;;;;5074329;28;20028;-21
2021/12/26 02:24:17;;;;;;;1.40;1.00;;;;;;;;;;5074011;28;20111;-21
2021/12/26 02:29:28;;;;;;;0.80;0.80;;;;;;;;;;5074211;28;20040;-21
2021/12/26 02:31:55;;;;;;;0.93;0.73;;;;;;;;;;5074087;28;20127;-21
2021/12/26 02:34:21;;;;;;;1.38;1.17;;;;;;;;;;5074410;28;20033;-21
2021/12/26 02:36:47;;;;;;;0.82;0.82;;;;;;;;;;5074151;28;20032;-21
2021/12/26 02:39:15;;;;;;;0.90;0.90;;;;;;;;;;5074636;28;20051;-21
2021/12/26 02:41:42;;;;;;;0.90;0.90;;;;;;;;;;5077667;28;20033;-21
2021/12/26 02:44:08;;;;;;;0.95;0.95;;;;;;;;;;5078228;28;20124;-21
2021/12/26 02:46:34;;;;;;;0.90;0.80;;;;;;;;;;5077661;28;20086;-22
2021/12/26 02:49:01;;;;;;;1.17;1.10;;;;;;;;;;5077957;28;20104;-21
2021/12/26 02:51:27;;;;;;;1.02;0.95;;;;;;;;;;5077892;28;20029;-21
2021/12/26 02:53:53;;;;;;;1.20;1.10;;;;;;;;;;5077529;28;20479;-21
2021/12/26 02:56:20;;;;;;;1.20;0.95;;;;;;;;;;5076597;28;20029;-22
2021/12/26 02:58:46;;;;;;;0.93;0.90;;;;;;;;;;5077456;28;20029;-22
2021/12/26 03:01:14;;;;;;;1.08;0.98;;;;;;;;;;5077491;28;20097;-21
2021/12/26 03:03:40;;;;;;;1.17;1.13;;;;;;;;;;5077389;28;20078;-21
2021/12/26 03:06:17;;;;;;;0.80;0.80;;;;;;;;;;5077600;28;20107;-21
2021/12/26 03:08:43;;;;;;;1.33;1.10;;;;;;;;;;5077627;28;20028;-21
2021/12/26 03:11:09;;;;;;;1.02;0.93;;;;;;;;;;5077562;28;20087;-21
2021/12/26 03:13:35;;;;;;;1.05;0.98;;;;;;;;;;5077204;28;20127;-21
2021/12/26 03:16:02;;;;;;;0.93;0.93;;;;;;;;;;5077478;28;20111;-22
2021/12/26 03:18:28;;;;;;;1.10;1.00;;;;;;;;;;5077176;28;20029;-23
2021/12/26 03:20:54;;;;;;;0.98;0.90;;;;;;;;;;5077692;28;20103;-21
2021/12/26 03:23:22;;;;;;;1.13;1.02;;;;;;;;;;5077213;28;20086;-21
2021/12/26 03:25:48;;;;;;;2.33;0.75;;;;;;;;;;5076784;28;20123;-21
2021/12/26 03:28:15;;;;;;;0.90;0.90;;;;;;;;;;5076917;28;20024;-21
2021/12/26 03:30:41;;;;;;;0.77;0.77;;;;;;;;;;5076952;28;20082;-21
2021/12/26 03:33:09;;;;;;;0.85;0.85;;;;;;;;;;5076819;28;20128;-22
2021/12/26 03:35:36;;;;;;;1.92;1.20;;;;;;;;;;5076872;28;20056;-22
2021/12/26 03:38:03;;;;;;;2.35;1.20;;;;;;;;;;5077044;28;20043;-21
2021/12/26 03:40:29;;;;;;;1.17;1.08;;;;;;;;;;5077019;28;20032;-21
2021/12/26 03:42:56;;;;;;;1.10;1.00;;;;;;;;;;5076762;28;20086;-21
2021/12/26 03:45:22;;;;;;;0.80;0.80;;;;;;;;;;5076695;28;20028;-21
2021/12/26 03:47:50;;;;;;;1.25;1.15;;;;;;;;;;5077307;28;20029;-22
2021/12/26 03:50:18;;;;;;;0.77;0.77;;;;;;;;;;5076582;28;20093;-22
2021/12/26 03:52:44;;;;;;;1.10;1.00;;;;;;;;;;5076022;28;20024;-22
2021/12/26 03:55:10;;;;;;;2.47;2.28;;;;;;;;;;5076423;28;20024;-22
2021/12/26 03:57:36;;;;;;;1.35;1.10;;;;;;;;;;5076695;28;20524;-21
2021/12/26 04:00:04;;;;;;;1.08;0.98;;;;;;;;;;5076630;28;20056;-21
2021/12/26 04:02:30;;;;;;;0.93;0.93;;;;;;;;;;5076219;28;20032;-21
2021/12/26 04:04:56;;;;;;;1.20;1.20;;;;;;;;;;5076254;28;20354;-22
2021/12/26 04:07:22;;;;;;;1.50;1.02;;;;;;;;;;5076166;28;20029;-21
2021/12/26 04:09:48;;;;;;;1.17;0.98;;;;;;;;;;5076419;28;20054;-22
2021/12/26 04:12:15;;;;;;;1.35;1.17;;;;;;;;;;5076278;28;20105;-22
2021/12/26 04:14:41;;;;;;;0.80;0.80;;;;;;;;;;5075118;28;20479;-21
2021/12/26 04:17:07;;;;;;;2.15;1.00;;;;;;;;;;5076261;28;20337;-22
2021/12/26 04:19:33;;;;;;;1.15;1.05;;;;;;;;;;5075977;28;20028;-21
2021/12/26 04:22:00;;;;;;;1.20;1.10;;;;;;;;;;5076070;28;20029;-21
2021/12/26 04:24:26;;;;;;;1.10;1.00;;;;;;;;;;5075829;28;20530;-22
2021/12/26 04:26:52;;;;;;;0.73;0.73;;;;;;;;;;5075742;28;20032;-21
2021/12/26 04:29:19;;;;;;;0.98;0.98;;;;;;;;;;5076038;28;20437;-21
2021/12/26 04:31:45;;;;;;;0.82;0.82;;;;;;;;;;5075640;28;20021;-22
2021/12/26 04:34:11;;;;;;;0.90;0.90;;;;;;;;;;5075681;28;20128;-22
2021/12/26 04:36:38;;;;;;;1.10;0.85;;;;;;;;;;5075898;28;20024;-22
2021/12/26 04:39:04;;;;;;;1.10;1.00;;;;;;;;;;5075519;28;20039;-23
2021/12/26 04:41:31;;;;;;;0.73;0.73;;;;;;;;;;5075817;28;20040;-22
2021/12/26 04:43:57;;;;;;;0.90;0.90;;;;;;;;;;5075432;28;20379;-21
2021/12/26 04:46:23;;;;;;;0.98;0.98;;;;;;;;;;5075935;28;20107;-21
2021/12/26 04:48:49;;;;;;;1.05;0.95;;;;;;;;;;5075635;28;20031;-21
2021/12/26 04:51:16;;;;;;;0.90;0.90;;;;;;;;;;5075410;28;20016;-21
2021/12/26 04:53:42;;;;;;;0.60;0.60;;;;;;;;;;5075240;28;20504;-22
2021/12/26 04:56:09;;;;;;;0.75;0.75;;;;;;;;;;5075561;28;20370;-22
2021/12/26 04:58:36;;;;;;;1.15;1.05;;;;;;;;;;5075497;28;20044;-23
2021/12/26 05:01:02;;;;;;;1.17;1.15;;;;;;;;;;5075205;28;20059;-22
2021/12/26 05:03:29;;;;;;;1.45;1.15;;;;;;;;;;5074819;28;20507;-21
2021/12/26 05:05:56;;;;;;;1.08;1.00;;;;;;;;;;5074069;28;20363;-22
2021/12/26 05:08:22;;;;;;;1.15;0.95;;;;;;;;;;5075087;28;20036;-22
2021/12/26 05:10:48;;;;;;;0.77;0.77;;;;;;;;;;5075034;28;20025;-21
2021/12/26 05:13:15;;;;;;;0.85;0.85;;;;;;;;;;5075193;28;20032;-21
2021/12/26 05:15:41;;;;;;;0.75;0.75;;;;;;;;;;5075007;28;20092;-22
2021/12/26 05:18:07;;;;;;;0.82;0.82;;;;;;;;;;5075205;28;20420;-21
2021/12/26 05:20:33;;;;;;;1.20;0.90;;;;;;;;;;5075523;28;20028;-21
2021/12/26 05:23:00;;;;;;;1.33;1.23;;;;;;;;;;5075120;28;20055;-21
2021/12/26 05:25:26;;;;;;;0.75;0.75;;;;;;;;;;5074883;28;20048;-21
2021/12/26 05:27:53;;;;;;;1.13;1.00;;;;;;;;;;5075088;28;20134;-22
2021/12/26 05:30:20;;;;;;;0.93;0.90;;;;;;;;;;5074848;28;20025;-22
2021/12/26 05:32:46;;;;;;;1.27;0.90;;;;;;;;;;5075033;28;20100;-22
2021/12/26 05:35:13;;;;;;;0.88;0.88;;;;;;;;;;5074780;28;20033;-21
2021/12/26 05:37:40;;;;;;;1.15;0.90;;;;;;;;;;5074796;28;20032;-21
2021/12/26 05:40:07;;;;;;;0.80;0.80;;;;;;;;;;5073803;28;20481;-22
2021/12/26 05:42:34;;;;;;;0.80;0.80;;;;;;;;;;5075188;28;20037;-22
2021/12/26 05:45:00;;;;;;;0.70;0.70;;;;;;;;;;5073735;28;20475;-21
2021/12/26 05:47:26;;;;;;;0.95;0.93;;;;;;;;;;5074531;28;20028;-21
2021/12/26 05:49:54;;;;;;;1.00;0.98;;;;;;;;;;5074918;28;20040;-21
2021/12/26 05:52:20;;;;;;;1.20;1.10;;;;;;;;;;5074465;28;20036;-21
2021/12/26 05:54:47;;;;;;;0.88;0.88;;;;;;;;;;5074576;28;20064;-22
2021/12/26 05:57:15;;;;;;;0.80;0.80;;;;;;;;;;5074826;28;20020;-24
2021/12/26 05:59:42;;;;;;;0.80;0.80;;;;;;;;;;5074846;28;20040;-21
2021/12/26 06:02:08;;;;;;;1.23;0.93;;;;;;;;;;5074682;28;20037;-23
2021/12/26 06:04:34;;;;;;;0.80;0.80;;;;;;;;;;5074761;28;20033;-22
2021/12/26 06:07:00;;;;;;;0.90;0.90;;;;;;;;;;5074411;28;20337;-22
2021/12/26 06:09:26;;;;;;;0.80;0.80;;;;;;;;;;5074462;28;20020;-21
2021/12/26 06:11:53;;;;;;;0.80;0.80;;;;;;;;;;5074610;28;20020;-21
2021/12/26 06:14:19;;;;;;;0.80;0.75;;;;;;;;;;5074674;28;20402;-23
2021/12/26 06:16:45;;;;;;;1.10;1.10;;;;;;;;;;5077447;28;20028;-23
2021/12/26 06:19:11;;;;;;;1.08;0.95;;;;;;;;;;5078344;28;20086;-21
2021/12/26 06:21:38;;;;;;;0.93;0.93;;;;;;;;;;5078532;28;20104;-21
2021/12/26 06:24:04;;;;;;;0.80;0.80;;;;;;;;;;5078202;28;20119;-22
2021/12/26 06:26:31;;;;;;;0.80;0.80;;;;;;;;;;5078439;28;20078;-22
2021/12/26 06:28:57;;;;;;;0.90;0.77;;;;;;;;;;5078668;28;20406;-21
2021/12/26 06:31:23;;;;;;;1.25;0.88;;;;;;;;;;5078054;28;20093;-23
2021/12/26 06:33:49;;;;;;;0.80;0.80;;;;;;;;;;5077946;28;20052;-21
2021/12/26 06:36:16;;;;;;;0.80;0.80;;;;;;;;;;5078274;28;20056;-21
2021/12/26 06:38:43;;;;;;;1.15;1.15;;;;;;;;;;5077871;28;20040;-22
2021/12/26 06:41:12;;;;;;;0.80;0.80;;;;;;;;;;5078174;28;20417;-21
2021/12/26 06:43:38;;;;;;;0.98;0.98;;;;;;;;;;5078044;28;20405;-21
2021/12/26 06:46:05;;;;;;;1.08;0.85;;;;;;;;;;5078034;28;20032;-22
2021/12/26 06:48:32;;;;;;;0.70;0.70;;;;;;;;;;5078341;28;20032;-23
2021/12/26 06:50:58;;;;;;;1.08;0.80;;;;;;;;;;5077982;28;20025;-21
2021/12/26 06:53:24;;;;;;;0.98;0.88;;;;;;;;;;5077828;28;20043;-21
2021/12/26 06:55:51;;;;;;;0.63;0.63;;;;;;;;;;5077665;28;20115;-21
2021/12/26 06:58:17;;;;;;;0.70;0.70;;;;;;;;;;5077882;28;20059;-21
2021/12/26 07:00:44;;;;;;;0.80;0.77;;;;;;;;;;5077841;28;20384;-21
2021/12/26 07:03:10;;;;;;;0.80;0.80;;;;;;;;;;5077714;28;20021;-22
2021/12/26 07:05:36;;;;;;;0.80;0.77;;;;;;;;;;5077490;28;20036;-21
2021/12/26 07:08:04;;;;;;;0.85;0.85;;;;;;;;;;5077633;28;20025;-22
2021/12/26 07:10:30;;;;;;;0.88;0.88;;;;;;;;;;5077374;28;20108;-22
2021/12/26 07:12:57;;;;;;;0.63;0.63;;;;;;;;;;5077276;28;20077;-21
2021/12/26 07:15:23;;;;;;;0.95;0.95;;;;;;;;;;5077289;28;20024;-21
2021/12/26 07:17:49;;;;;;;0.95;0.80;;;;;;;;;;5077551;28;20032;-22
2021/12/26 07:20:15;;;;;;;0.80;0.80;;;;;;;;;;5077193;28;20355;-24
2021/12/26 07:22:43;;;;;;;0.98;0.98;;;;;;;;;;5077024;28;20029;-23
2021/12/26 07:25:09;;;;;;;0.73;0.73;;;;;;;;;;5076836;28;20416;-21
2021/12/26 07:27:35;;;;;;;1.33;0.90;;;;;;;;;;5076008;28;20028;-21
2021/12/26 07:30:03;;;;;;;0.93;0.88;;;;;;;;;;5076044;28;20055;-24
2021/12/26 07:32:30;;;;;;;0.70;0.70;;;;;;;;;;5076855;28;20459;-22
2021/12/26 07:34:57;;;;;;;0.65;0.65;;;;;;;;;;5077230;28;20052;-23
2021/12/26 07:37:23;;;;;;;0.98;0.70;;;;;;;;;;5077176;28;20125;-22
2021/12/26 07:39:50;;;;;;;0.80;0.80;;;;;;;;;;5077415;28;20024;-23
2021/12/26 07:42:16;;;;;;;0.85;0.85;;;;;;;;;;5076697;28;20126;-21
2021/12/26 07:44:42;;;;;;;0.70;0.70;;;;;;;;;;5075828;28;20067;-21
2021/12/26 07:47:09;;;;;;;0.95;0.73;;;;;;;;;;5076625;28;20452;-21
2021/12/26 07:49:35;;;;;;;0.90;0.90;;;;;;;;;;5077723;28;20056;-21
2021/12/26 07:52:09;;;;;;;0.80;0.80;;;;;;;;;;5077081;28;20104;-22
2021/12/26 07:54:35;;;;;;;0.88;0.88;;;;;;;;;;5077161;28;20104;-21
2021/12/26 07:57:01;;;;;;;0.90;0.73;;;;;;;;;;5076804;28;20028;-23
2021/12/26 07:59:28;;;;;;;1.05;0.80;;;;;;;;;;5076746;28;20028;-21
2021/12/26 08:01:54;;;;;;;0.82;0.82;;;;;;;;;;5076649;28;20325;-21
2021/12/26 08:04:20;;;;;;;1.00;0.80;;;;;;;;;;5076621;28;20028;-23
2021/12/26 08:06:46;;;;;;;0.88;0.88;;;;;;;;;;5076253;28;20360;-22
2021/12/26 08:09:12;;;;;;;0.75;0.75;;;;;;;;;;5076811;28;20029;-21
2021/12/26 08:11:38;;;;;;;2.13;0.80;;;;;;;;;;5076238;28;20360;-22
2021/12/26 08:14:05;;;;;;;0.70;0.70;;;;;;;;;;5076125;28;20428;-22
2021/12/26 08:16:31;;;;;;;0.70;0.70;;;;;;;;;;5076080;28;20528;-24
2021/12/26 08:18:57;;;;;;;0.88;0.88;;;;;;;;;;5076029;28;20044;-21
2021/12/26 08:21:23;;;;;;;0.90;0.90;;;;;;;;;;5076278;28;20071;-22
2021/12/26 08:23:49;;;;;;;0.60;0.60;;;;;;;;;;5075747;28;20375;-21
2021/12/26 08:26:16;;;;;;;0.77;0.77;;;;;;;;;;5075663;28;20048;-22
2021/12/26 08:28:42;;;;;;;0.73;0.70;;;;;;;;;;5075865;28;20025;-21
2021/12/26 08:31:10;;;;;;;0.73;0.73;;;;;;;;;;5075810;28;20021;-22
2021/12/26 08:33:36;;;;;;;0.68;0.68;;;;;;;;;;5075949;28;20029;-22
2021/12/26 08:36:04;;;;;;;0.57;0.57;;;;;;;;;;5075735;28;20051;-22
2021/12/26 08:38:30;;;;;;;0.50;0.47;;;;;;;;;;5076338;28;20034;-21
2021/12/26 08:40:57;;;;;;;0.77;0.73;;;;;;;;;;5075654;28;20025;-23
2021/12/26 08:43:23;;;;;;;1.08;0.70;;;;;;;;;;5075802;28;20032;-22
2021/12/26 08:45:49;;;;;;;0.82;0.55;;;;;;;;;;5075475;28;20111;-21
2021/12/26 08:48:16;;;;;;;0.50;0.50;;;;;;;;;;5075509;28;20140;-22
2021/12/26 08:50:43;;;;;;;0.70;0.70;;;;;;;;;;5075748;28;20038;-21
2021/12/26 08:53:10;;;;;;;1.05;1.05;;;;;;;;;;5075873;28;20032;-22
2021/12/26 08:55:37;;;;;;;0.85;0.77;;;;;;;;;;5075630;28;20078;-21
2021/12/26 08:58:06;;;;;;;0.93;0.80;;;;;;;;;;5075314;28;20463;-21
2021/12/26 09:00:32;;;;;;;0.85;0.85;;;;;;;;;;5075548;28;20036;-22
2021/12/26 09:02:59;;;;;;;0.82;0.82;;;;;;;;;;5075155;28;20052;-22
2021/12/26 09:05:25;;;;;;;0.82;0.82;;;;;;;;;;5075167;28;20036;-21
2021/12/26 09:07:51;;;;;;;0.93;0.75;;;;;;;;;;5075350;28;20031;-21
2021/12/26 09:10:18;;;;;;;0.77;0.75;;;;;;;;;;5075085;28;20439;-21
2021/12/26 09:12:44;;;;;;;0.93;0.90;;;;;;;;;;5075018;28;20027;-21
2021/12/26 09:15:12;;;;;;;0.70;0.70;;;;;;;;;;5075041;28;20028;-22
2021/12/26 09:17:39;;;;;;;0.80;0.80;;;;;;;;;;5075016;28;20095;-22
2021/12/26 09:20:06;;;;;;;0.85;0.70;;;;;;;;;;5075257;28;20028;-22
2021/12/26 09:22:32;;;;;;;1.20;0.88;;;;;;;;;;5074899;28;20154;-22
2021/12/26 09:24:58;;;;;;;0.60;0.60;;;;;;;;;;5075090;28;20049;-22
2021/12/26 09:27:25;;;;;;;0.73;0.73;;;;;;;;;;5074859;28;20119;-22
2021/12/26 09:29:51;;;;;;;0.73;0.73;;;;;;;;;;5075144;28;20031;-21
2021/12/26 09:32:17;;;;;;;0.80;0.80;;;;;;;;;;5075300;28;20028;-22
2021/12/26 09:34:43;;;;;;;0.77;0.77;;;;;;;;;;5075071;28;20158;-21
2021/12/26 09:37:10;;;;;;;1.15;1.05;;;;;;;;;;5074758;28;20032;-21
2021/12/26 09:39:37;;;;;;;0.80;0.60;;;;;;;;;;5075020;28;20029;-22
2021/12/26 09:42:03;;;;;;;0.65;0.60;;;;;;;;;;5074648;28;20039;-22
2021/12/26 09:44:30;;;;;;;0.77;0.60;;;;;;;;;;5074699;28;20103;-22
2021/12/26 09:46:56;;;;;;;1.42;1.10;;;;;;;;;;5074641;28;20021;-22
2021/12/26 09:49:22;;;;;;;1.48;1.00;;;;;;;;;;5074376;28;20363;-22
2021/12/26 09:51:52;;;;;;;0.60;0.60;;;;;;;;;;5074540;28;20048;-22
2021/12/26 09:54:21;;;;;;;0.93;0.80;;;;;;;;;;5074595;28;20074;-22
2021/12/26 09:56:47;;;;;;;0.80;0.80;;;;;;;;;;5074595;28;20028;-22
2021/12/26 09:59:18;;;;;;;0.60;0.60;;;;;;;;;;5074576;28;20351;-24
2021/12/26 10:01:44;;;;;;;;;;;;;;;;;;5075144;28;20417;-22
2021/12/26 10:04:10;;;;;;;0.57;0.57;;;;;;;;;;5074514;28;20247;-22
2021/12/26 10:06:36;;;;;;;0.80;0.80;;;;;;;;;;5074367;28;20064;-22
2021/12/26 10:09:04;;;;;;;0.68;0.68;;;;;;;;;;5074710;28;20024;-21
2021/12/26 10:11:35;;;;;;;1.30;0.77;;;;;;;;;;5074438;28;20032;-21
2021/12/26 10:14:01;;;;;;;0.88;0.60;;;;;;;;;;5074359;28;20035;-21
2021/12/26 10:16:29;;;;;;;1.02;0.90;;;;;;;;;;5074359;28;20028;-22
2021/12/26 10:18:57;;;;;;;0.68;0.55;;;;;;;;;;5074612;28;20035;-21
2021/12/26 10:21:23;;;;;;;0.68;0.68;;;;;;;;;;5074359;28;20028;-22
2021/12/26 10:23:49;;;;;;;0.80;0.80;;;;;;;;;;5074239;28;20341;-21
2021/12/26 10:26:23;;;;;;;0.70;0.57;;;;;;;;;;5074062;28;20037;-21
2021/12/26 10:29:09;;;;;;;1.45;0.93;;;;;;;;;;5074534;28;20459;-21
2021/12/26 10:31:35;;;;;;;0.70;0.70;;;;;;;;;;5074561;28;20071;-22
2021/12/26 10:34:02;;;;;;;1.05;0.70;;;;;;;;;;5073157;28;20513;-22
2021/12/26 10:36:28;;;;;;;0.88;0.70;;;;;;;;;;5074748;28;20359;-22
2021/12/26 10:39:14;;;;;;;0.63;0.63;;;;;;;;;;5074487;28;20109;-21
2021/12/26 10:41:42;;;;;;;0.60;0.60;;;;;;;;;;5074119;28;20036;-21
2021/12/26 10:44:18;;;;;;;0.90;0.80;;;;;;;;;;5074325;28;20024;-22
2021/12/26 10:46:47;;;;;;;0.55;0.55;;;;;;;;;;5074389;28;20024;-22
2021/12/26 10:49:30;;;;;;;1.60;0.75;;;;;;;;;;5074055;28;20017;-22
2021/12/26 10:51:56;;;;;;;0.80;0.80;;;;;;;;;;5074268;28;20100;-23
2021/12/26 10:54:31;;;;;;;0.90;0.90;;;;;;;;;;5074056;28;20503;-21
2021/12/26 10:57:26;;;;;;;0.85;0.77;;;;;;;;;;5074348;28;20047;-22
2021/12/26 11:00:11;;;;;;;0.68;0.68;;;;;;;;;;5065097;28;20052;-21
2021/12/26 11:02:37;;;;;;;0.60;0.60;;;;;;;;;;5075813;28;20035;-21
2021/12/26 11:05:24;;;;;;;0.68;0.68;;;;;;;;;;5077496;28;20057;-21
2021/12/26 11:07:53;;;;;;;1.10;1.00;;;;;;;;;;5077649;28;20348;-22
2021/12/26 11:10:21;;;;;;;0.68;0.68;;;;;;;;;;5077633;28;20443;-22
2021/12/26 11:12:50;;;;;;;0.77;0.70;;;;;;;;;;5077403;28;20029;-24
2021/12/26 11:15:16;;;;;;;0.70;0.70;;;;;;;;;;5077839;28;20039;-21
2021/12/26 11:17:45;;;;;;;0.75;0.75;;;;;;;;;;5077473;28;20078;-22
2021/12/26 11:20:22;;;;;;;0.73;0.73;;;;;;;;;;5077131;28;20032;-22
2021/12/26 11:22:48;;;;;;;1.00;0.80;;;;;;;;;;5077565;28;20025;-21
2021/12/26 11:25:15;;;;;;;1.15;1.00;;;;;;;;;;5076871;28;20136;-22
2021/12/26 11:27:41;;;;;;;0.60;0.60;;;;;;;;;;5076950;28;20075;-21
2021/12/26 11:30:09;;;;;;;0.60;0.60;;;;;;;;;;5077510;28;20024;-22
2021/12/26 11:32:35;;;;;;;0.70;0.70;;;;;;;;;;5076855;28;20031;-22
2021/12/26 11:35:02;;;;;;;0.60;0.60;;;;;;;;;;5077198;28;20089;-21
2021/12/26 11:37:29;;;;;;;0.60;0.60;;;;;;;;;;5076877;28;20060;-21
2021/12/26 11:39:55;;;;;;;0.93;0.88;;;;;;;;;;5076835;28;20064;-21
2021/12/26 11:42:50;;;;;;;0.60;0.60;;;;;;;;;;5076943;28;20055;-22
2021/12/26 11:45:29;;;;;;;0.73;0.73;;;;;;;;;;5077042;28;20035;-21
2021/12/26 11:48:20;;;;;;;0.55;0.55;;;;;;;;;;5077184;28;20359;-21
2021/12/26 11:50:52;;;;;;;0.90;0.90;;;;;;;;;;5076612;28;20032;-21
2021/12/26 11:53:19;;;;;;;0.75;0.75;;;;;;;;;;5076726;28;20067;-21
2021/12/26 11:55:47;;;;;;;0.60;0.60;;;;;;;;;;5076787;28;20021;-21
2021/12/26 11:58:14;;;;;;;0.70;0.70;;;;;;;;;;5076904;28;20392;-21
2021/12/26 12:00:41;;;;;;;0.80;0.80;;;;;;;;;;5076393;28;20100;-22
2021/12/26 12:03:18;;;;;;;0.60;0.60;;;;;;;;;;5076545;28;20355;-21
2021/12/26 12:05:44;;;;;;;0.60;0.60;;;;;;;;;;5076614;28;20036;-21
2021/12/26 12:08:11;;;;;;;0.73;0.73;;;;;;;;;;5076481;28;20053;-21
2021/12/26 12:10:56;;;;;;;1.20;0.80;;;;;;;;;;5076442;28;20039;-22
2021/12/26 12:13:22;;;;;;;0.70;0.70;;;;;;;;;;5075645;28;20032;-22
2021/12/26 12:15:50;;;;;;;0.70;0.70;;;;;;;;;;5076098;28;20024;-22
2021/12/26 12:18:18;;;;;;;0.70;0.70;;;;;;;;;;5076315;28;20068;-22
2021/12/26 12:20:44;;;;;;;0.60;0.60;;;;;;;;;;5076815;28;20085;-22
2021/12/26 12:23:12;;;;;;;0.50;0.50;;;;;;;;;;5076191;28;20032;-22
2021/12/26 12:25:39;;;;;;;0.77;0.65;;;;;;;;;;5075670;28;20189;-21
2021/12/26 12:28:10;;;;;;;3.60;0.73;;;;;;;;;;5076034;28;20039;-22
2021/12/26 12:30:41;;;;;;;0.57;0.57;;;;;;;;;;5076312;28;20033;-22
2021/12/26 12:33:15;;;;;;;0.60;0.50;;;;;;;;;;5075975;28;20459;-22
2021/12/26 12:35:58;;;;;;;1.45;1.00;;;;;;;;;;5075667;28;20021;-22
2021/12/26 12:38:29;;;;;;;0.77;0.77;;;;;;;;;;5076249;28;20096;-21
2021/12/26 12:40:56;;;;;;;0.88;0.88;;;;;;;;;;5075921;28;20447;-22
2021/12/26 12:43:23;;;;;;;0.60;0.55;;;;;;;;;;5075486;28;20111;-21
2021/12/26 12:45:53;;;;;;;0.70;0.70;;;;;;;;;;5075513;28;20027;-21
2021/12/26 12:48:22;;;;;;;0.50;0.50;;;;;;;;;;5075247;28;20107;-22
2021/12/26 12:50:48;;;;;;;0.70;0.70;;;;;;;;;;5075359;28;20025;-22
2021/12/26 12:53:44;;;;;;;0.68;0.68;;;;;;;;;;5075776;28;20092;-21
2021/12/26 12:56:33;;;;;;;0.70;0.70;;;;;;;;;;5066631;28;20478;-22
2021/12/26 12:59:14;;;;;;;0.80;0.80;;;;;;;;;;5075057;28;20048;-22
2021/12/26 13:01:42;;;;;;;0.75;0.60;;;;;;;;;;5075414;28;20024;-21
2021/12/26 13:04:08;;;;;;;0.63;0.63;;;;;;;;;;5075074;28;20086;-24
2021/12/26 13:06:35;;;;;;;0.60;0.60;;;;;;;;;;5075577;28;20108;-21
2021/12/26 13:09:02;;;;;;;0.60;0.60;;;;;;;;;;5075106;28;20032;-21
2021/12/26 13:11:30;;;;;;;0.70;0.70;;;;;;;;;;5075041;28;20104;-21
2021/12/26 13:14:00;;;;;;;0.85;0.50;;;;;;;;;;5074987;28;20021;-22
2021/12/26 13:16:30;;;;;;;0.90;0.90;;;;;;;;;;5075032;28;20028;-21
2021/12/26 13:19:04;;;;;;;1.00;0.90;;;;;;;;;;5075522;28;20107;-21
2021/12/26 13:21:30;;;;;;;0.60;0.55;;;;;;;;;;5075199;28;20039;-22
2021/12/26 13:23:56;;;;;;;0.43;0.43;;;;;;;;;;5074396;28;20028;-23
2021/12/26 13:26:22;;;;;;;1.15;0.77;;;;;;;;;;5074251;28;20040;-22
2021/12/26 13:28:50;;;;;;;0.95;0.80;;;;;;;;;;5074786;28;20052;-21
2021/12/26 13:31:18;;;;;;;0.80;0.70;;;;;;;;;;5074752;28;20020;-21
2021/12/26 13:33:46;;;;;;;0.85;0.85;;;;;;;;;;5074644;28;20016;-21
2021/12/26 13:36:13;;;;;;;0.50;0.50;;;;;;;;;;5074921;28;20025;-22
2021/12/26 13:38:39;;;;;;;0.80;0.80;;;;;;;;;;5074564;28;20463;-21
2021/12/26 13:41:08;;;;;;;0.70;0.70;;;;;;;;;;5074569;28;20016;-21
2021/12/26 13:43:38;;;;;;;0.55;0.47;;;;;;;;;;5074539;28;20029;-22
2021/12/26 13:46:05;;;;;;;0.75;0.75;;;;;;;;;;5075021;28;20044;-22
2021/12/26 13:48:33;;;;;;;0.77;0.70;;;;;;;;;;5074776;28;20021;-22
2021/12/26 13:51:16;;;;;;;0.93;0.85;;;;;;;;;;5074508;28;20107;-21
2021/12/26 13:53:42;;;;;;;0.70;0.68;;;;;;;;;;5074966;28;20183;-22
2021/12/26 13:56:08;;;;;;;0.60;0.60;;;;;;;;;;5074435;28;20035;-22
2021/12/26 13:58:39;;;;;;;0.75;0.75;;;;;;;;;;5074414;28;20029;-21
2021/12/26 14:01:06;;;;;;;0.60;0.60;;;;;;;;;;5075536;28;20028;-22
2021/12/26 14:03:32;;;;;;;0.70;0.70;;;;;;;;;;5073735;28;20024;-21
2021/12/26 14:05:58;;;;;;;0.50;0.50;;;;;;;;;;5074621;28;20048;-22
2021/12/26 14:08:30;;;;;;;0.60;0.60;;;;;;;;;;5074553;28;20364;-23
2021/12/26 14:11:01;;;;;;;0.50;0.50;;;;;;;;;;5074574;28;20037;-21
2021/12/26 14:13:28;;;;;;;0.68;0.68;;;;;;;;;;5073503;28;20024;-22
2021/12/26 14:16:00;;;;;;;0.63;0.63;;;;;;;;;;5074393;28;20032;-21
2021/12/26 14:18:31;;;;;;;0.73;0.73;;;;;;;;;;5074594;28;20036;-21
2021/12/26 14:21:05;;;;;;;0.63;0.63;;;;;;;;;;5074539;28;20478;-21
2021/12/26 14:23:39;;;;;;;0.73;0.73;;;;;;;;;;5074142;28;20121;-21
2021/12/26 14:26:07;;;;;;;0.95;0.80;;;;;;;;;;5074018;28;20055;-21
2021/12/26 14:28:33;;;;;;;0.60;0.60;;;;;;;;;;5074516;28;20017;-22
2021/12/26 14:31:01;;;;;;;0.77;0.77;;;;;;;;;;5074460;28;20424;-22
2021/12/26 14:33:31;;;;;;;0.80;0.80;;;;;;;;;;5074373;28;20474;-21
2021/12/26 14:35:59;;;;;;;0.80;0.60;;;;;;;;;;5075438;28;20041;-22
2021/12/26 14:38:25;;;;;;;0.70;0.70;;;;;;;;;;5078456;28;20024;-22
2021/12/26 14:40:52;;;;;;;0.75;0.75;;;;;;;;;;5077928;28;20393;-22
2021/12/26 14:43:18;;;;;;;0.60;0.60;;;;;;;;;;5077791;28;20020;-21
2021/12/26 14:45:46;;;;;;;0.65;0.60;;;;;;;;;;5078326;28;20078;-22
2021/12/26 14:48:23;;;;;;;0.60;0.60;;;;;;;;;;5076694;28;20107;-21
2021/12/26 14:50:50;;;;;;;0.80;0.70;;;;;;;;;;5078013;28;20025;-21
2021/12/26 14:53:16;;;;;;;0.65;0.65;;;;;;;;;;5077572;28;20025;-21